• Join FlightAware (Why Join?)
  • Login
  • US Flag 
Gobble Gobble! 
08:46PM EST


 

Airport Tracker/Info


-or-


 

Live Flight TrackerFlight Track Log ✈ PAC237 ✈ 14-May-2013 ✈ KCVG - RKSI / ICN

Flight Track Log - Related Links

Times and Time Zones

All times are in EDT time to prevent confusion due to time zone crossing. See the PAC237 flight status page for this flight to view local times or setup timezone preferences in your user account.

Time Position Orientation Groundspeed Altitude Reporting Facility
EDT Latitude Longitude Course Direction KTS MPH feet Rate Location/Type
07:00AM 39.0500 -84.7000 270° West 187 215 1,300  Level Cincinnati TRACON
07:01AM 39.0500 -84.7667 270° West 195 224 3,100 1,260 Climbing Cincinnati TRACON
07:02AM 39.0500 -84.8500 270° West 242 278 4,000 1,320 Climbing Cincinnati TRACON
07:03AM 39.0500 -84.9500 270° West 281 323 5,800 1,860 Climbing Cincinnati TRACON
07:04AM 39.0758 -85.0433 290° West 284 327 7,900 2,040 Climbing Indianapolis Center
07:05AM 39.1117 -85.1358 297° West 290 334 10,100 1,620 Climbing Indianapolis Center
07:06AM 39.1494 -85.2353 296° West 304 350 11,200 1,260 Climbing Indianapolis Center
07:07AM 39.2019 -85.3775 296° West 366 421 12,700 1,680 Climbing Indianapolis Center
07:13AM 39.6200 -86.0530 296° West 438 504 23,100 1,740 Climbing FlightAware
07:13AM 39.6700 -86.1350 308° West 442 509 24,100 1,260 Climbing FlightAware
07:14AM 39.7120 -86.2020 309° West 446 513 24,700 1,200 Climbing FlightAware
07:15AM 39.7800 -86.3110 309° West 453 521 25,800 1,440 Climbing FlightAware
07:15AM 39.8270 -86.3900 308° West 451 519 26,800 1,080 Climbing FlightAware
07:16AM 39.8910 -86.5120 304° West 450 518 27,600 1,320 Climbing FlightAware
07:17AM 39.9490 -86.6200 305° West 447 514 29,200 1,680 Climbing FlightAware
07:18AM 39.9970 -86.7050 306° West 443 510 30,000 600 Climbing FlightAware
07:18AM 40.0660 -86.7620 328° Northwest 440 506 30,000  Level FlightAware
07:19AM 40.1410 -86.8080 335° Northwest 441 507 30,000  Level FlightAware
07:20AM 40.2240 -86.8600 334° Northwest 441 507 30,000  Level FlightAware
07:20AM 40.2990 -86.9070 334° Northwest 441 507 30,000  Level FlightAware
07:21AM 40.3820 -86.9600 334° Northwest 442 509 30,000  Level FlightAware
07:22AM 40.4520 -87.0040 334° Northwest 443 510 30,000  Level FlightAware
07:23AM 40.5380 -87.0570 335° Northwest 444 511 30,000  Level FlightAware
07:23AM 40.6170 -87.1010 337° Northwest 445 512 30,000  Level FlightAware
07:24AM 40.6990 -87.1430 339° North 445 512 30,000  Level FlightAware
07:25AM 40.7750 -87.1830 338° Northwest 444 511 30,000  Level FlightAware
07:25AM 40.8640 -87.2290 339° North 442 509 30,000  Level FlightAware
07:26AM 40.9390 -87.2680 339° North 442 509 30,000  Level FlightAware
07:27AM 41.0150 -87.3080 338° Northwest 442 509 30,000  Level FlightAware
07:28AM 41.1020 -87.3530 339° North 440 506 30,000  Level FlightAware
07:28AM 41.1740 -87.3910 338° Northwest 439 505 30,000  Level FlightAware
07:29AM 41.2490 -87.4310 338° Northwest 438 504 30,000  Level FlightAware
07:30AM 41.3360 -87.4770 338° Northwest 437 503 30,000  Level FlightAware
07:30AM 41.4110 -87.5160 339° North 435 501 30,000  Level FlightAware
07:31AM 41.4860 -87.5560 338° Northwest 435 501 30,000  Level FlightAware
07:32AM 41.5650 -87.5980 338° Northwest 434 499 30,000  Level FlightAware
07:32AM 41.6420 -87.6390 338° Northwest 434 499 30,000  Level FlightAware
07:33AM 41.7280 -87.6850 338° Northwest 433 498 30,000  Level FlightAware
07:34AM 41.8020 -87.7250 338° Northwest 433 498 30,000  Level FlightAware
07:35AM 41.8840 -87.7690 338° Northwest 432 497 30,000  Level FlightAware
07:35AM 41.9620 -87.8110 338° Northwest 432 497 30,000  Level FlightAware
07:36AM 42.0300 -87.8480 338° Northwest 433 498 30,000  Level FlightAware
07:37AM 42.1180 -87.8960 338° Northwest 432 497 30,000  Level FlightAware
07:37AM 42.1920 -87.9350 339° North 432 497 30,000  Level FlightAware
07:38AM 42.2750 -87.9710 342° North 436 502 30,000  Level FlightAware
07:39AM 42.3570 -88.0010 345° North 436 502 30,000  Level FlightAware
07:39AM 42.4370 -88.0310 345° North 436 502 30,000  Level FlightAware
07:40AM 42.5240 -88.0630 345° North 436 502 30,000  Level FlightAware
07:41AM 42.6020 -88.0920 345° North 437 503 30,000  Level FlightAware
07:42AM 42.6910 -88.1250 345° North 436 502 30,000  Level FlightAware
07:42AM 42.7670 -88.1530 345° North 436 502 30,000  Level FlightAware
07:43AM 42.8440 -88.1820 345° North 435 501 30,000  Level FlightAware
07:44AM 42.9340 -88.2160 345° North 435 501 30,000  Level FlightAware
07:44AM 42.9990 -88.2400 345° North 435 501 30,000  Level FlightAware
07:45AM 43.0850 -88.2730 344° North 436 502 30,000  Level FlightAware
07:46AM 43.1670 -88.3340 332° Northwest 430 495 30,000  Level FlightAware
07:46AM 43.2300 -88.3950 325° Northwest 430 495 30,000  Level FlightAware
07:47AM 43.3020 -88.4660 324° Northwest 429 494 30,000  Level FlightAware
07:48AM 43.3650 -88.5290 324° Northwest 429 494 30,000  Level FlightAware
07:49AM 43.4350 -88.5980 324° Northwest 427 491 30,000  Level FlightAware
07:49AM 43.5010 -88.6640 324° Northwest 427 491 30,000  Level FlightAware
07:50AM 43.5650 -88.7280 324° Northwest 426 490 30,000  Level FlightAware
07:51AM 43.6390 -88.8020 324° Northwest 425 489 30,000  Level FlightAware
07:51AM 43.6940 -88.8580 324° Northwest 425 489 30,000  Level FlightAware
07:52AM 43.7760 -88.9390 325° Northwest 425 489 30,000  Level FlightAware
07:53AM 43.8350 -88.9990 324° Northwest 425 489 30,000  Level FlightAware
07:54AM 43.9170 -89.0810 324° Northwest 425 489 30,000  Level FlightAware
07:54AM 43.9890 -89.1540 324° Northwest 425 489 30,000  Level FlightAware
07:55AM 44.0610 -89.2280 324° Northwest 423 487 30,000  Level FlightAware
07:56AM 44.1170 -89.2860 323° Northwest 423 487 30,000  Level FlightAware
07:56AM 44.1910 -89.3610 324° Northwest 423 487 30,000  Level FlightAware
07:57AM 44.2540 -89.4260 324° Northwest 424 488 30,000  Level FlightAware
07:58AM 44.3270 -89.5010 324° Northwest 426 490 30,000  Level FlightAware
07:59AM 44.3910 -89.5670 324° Northwest 425 489 30,000  Level FlightAware
07:59AM 44.4520 -89.6310 323° Northwest 426 490 30,000  Level FlightAware
08:00AM 44.5270 -89.7080 324° Northwest 425 489 30,000  Level FlightAware
08:01AM 44.5890 -89.7730 323° Northwest 425 489 30,000  Level FlightAware
08:01AM 44.6580 -89.8450 323° Northwest 424 488 30,000  Level FlightAware
08:02AM 44.7210 -89.9110 323° Northwest 424 488 30,000  Level FlightAware
08:03AM 44.7850 -89.9780 323° Northwest 424 488 30,000  Level FlightAware
08:03AM 44.8540 -90.0510 323° Northwest 422 486 30,000  Level FlightAware
08:04AM 44.9180 -90.1180 323° Northwest 422 486 30,000  Level FlightAware
08:05AM 44.9780 -90.1830 323° Northwest 423 487 30,000  Level FlightAware
08:06AM 45.0480 -90.2570 323° Northwest 423 487 30,000  Level FlightAware
08:06AM 45.1090 -90.3220 323° Northwest 424 488 30,000  Level FlightAware
08:07AM 45.1830 -90.4010 323° Northwest 424 488 30,000  Level FlightAware
08:08AM 45.2440 -90.4660 323° Northwest 424 488 30,000  Level FlightAware
08:08AM 45.3090 -90.5360 323° Northwest 425 489 30,000  Level FlightAware
08:09AM 45.3780 -90.6110 323° Northwest 426 490 30,000  Level FlightAware
08:10AM 45.4400 -90.6780 323° Northwest 427 491 30,000  Level FlightAware
08:10AM 45.5020 -90.7460 322° Northwest 427 491 30,000  Level FlightAware
08:11AM 45.5740 -90.8240 323° Northwest 428 493 30,000  Level FlightAware
08:12AM 45.6380 -90.8940 323° Northwest 428 493 30,000  Level FlightAware
08:13AM 45.7070 -90.9690 323° Northwest 430 495 30,000  Level FlightAware
08:13AM 45.7700 -91.0390 322° Northwest 430 495 30,000  Level FlightAware
08:14AM 45.8350 -91.1100 323° Northwest 429 494 30,000  Level FlightAware
08:15AM 45.9060 -91.1890 322° Northwest 427 491 30,000  Level FlightAware
08:15AM 45.9680 -91.2580 322° Northwest 426 490 30,000  Level FlightAware
08:16AM 46.0370 -91.3350 322° Northwest 423 487 30,000  Level FlightAware
08:17AM 46.0980 -91.4030 322° Northwest 420 483 30,000  Level FlightAware
08:17AM 46.1590 -91.4700 323° Northwest 417 480 30,000  Level FlightAware
08:18AM 46.2290 -91.5490 322° Northwest 419 482 30,000  Level FlightAware
08:19AM 46.2970 -91.6250 322° Northwest 420 483 30,000  Level FlightAware
08:20AM 46.3580 -91.6950 322° Northwest 420 483 30,000  Level FlightAware
08:20AM 46.4250 -91.7700 322° Northwest 420 483 30,000  Level FlightAware
08:21AM 46.4890 -91.8440 321° Northwest 419 482 30,000  Level FlightAware
08:22AM 46.5510 -91.9140 322° Northwest 417 480 30,000  Level FlightAware
08:22AM 46.6100 -91.9820 322° Northwest 417 480 30,000  Level FlightAware
08:23AM 46.6770 -92.0590 322° Northwest 415 478 30,000  Level FlightAware
08:24AM 46.7360 -92.1270 322° Northwest 413 475 30,000  Level FlightAware
08:24AM 46.7960 -92.1960 322° Northwest 411 473 30,000  Level FlightAware
08:25AM 46.8640 -92.2780 321° Northwest 407 468 30,000  Level FlightAware
08:26AM 46.9260 -92.3550 320° Northwest 406 467 30,000  Level FlightAware
08:27AM 46.9830 -92.4260 320° Northwest 406 467 30,000  Level FlightAware
08:27AM 47.0510 -92.5090 320° Northwest 409 471 30,000  Level FlightAware
08:28AM 47.1060 -92.5780 320° Northwest 411 473 30,000  Level FlightAware
08:29AM 47.1570 -92.6410 320° Northwest 414 476 30,000  Level FlightAware
08:29AM 47.2320 -92.7340 320° Northwest 417 480 30,000  Level FlightAware
08:30AM 47.2890 -92.8060 319° Northwest 419 482 30,000  Level FlightAware
08:31AM 47.3570 -92.8920 319° Northwest 421 484 30,000  Level FlightAware
08:31AM 47.4170 -92.9670 320° Northwest 422 486 30,000  Level FlightAware
08:32AM 47.4760 -93.0420 319° Northwest 423 487 30,000  Level FlightAware
08:33AM 47.5420 -93.1260 319° Northwest 426 490 30,000 420 Level FlightAware
08:34AM 47.6020 -93.2020 320° Northwest 426 490 30,600 1,320 Climbing FlightAware
08:34AM 47.6690 -93.2880 319° Northwest 414 476 31,900 960 Climbing FlightAware
08:35AM 47.7230 -93.3570 319° Northwest 412 474 32,000 60 Climbing FlightAware
08:36AM 47.7810 -93.4320 319° Northwest 411 473 32,000  Level FlightAware
08:36AM 47.8340 -93.5010 319° Northwest 411 473 32,000  Level FlightAware
08:37AM 47.9010 -93.5860 320° Northwest 412 474 32,000  Level FlightAware
08:38AM 47.9620 -93.6660 319° Northwest 415 478 32,000  Level FlightAware
08:38AM 48.0290 -93.7530 319° Northwest 417 480 32,000  Level FlightAware
08:39AM 48.0790 -93.8200 318° Northwest 417 480 32,000  Level FlightAware
08:40AM 48.1280 -93.8860 318° Northwest 417 480 32,000  Level FlightAware
08:41AM 48.2100 -93.9900 320° Northwest 424 488 32,000  Level FlightAware
08:41AM 48.2700 -94.0690 319° Northwest 427 491 32,000  Level FlightAware
08:42AM 48.3330 -94.1530 318° Northwest 428 493 32,000  Level FlightAware
08:43AM 48.3830 -94.2210 318° Northwest 428 493 32,000  Level FlightAware
08:43AM 48.4330 -94.2890 318° Northwest 428 493 32,000  Level FlightAware
08:44AM 48.4830 -94.3570 318° Northwest 428 493 32,000  Level FlightAware
08:45AM 48.5330 -94.4250 318° Northwest 428 493 32,000  Level FlightAware
08:45AM 48.5950 -94.5100 318° Northwest 428 493 32,000  Level FlightAware
08:46AM 48.7100 -94.6590 319° Northwest 441 507 32,000  Level FlightAware
08:47AM 48.7660 -94.7350 318° Northwest 442 509 32,000  Level FlightAware
08:47AM 48.8180 -94.8050 318° Northwest 442 509 32,000  Level FlightAware
08:48AM 48.8700 -94.8760 318° Northwest 442 509 32,000  Level FlightAware
08:49AM 48.9340 -94.9650 318° Northwest 442 509 32,000  Level FlightAware
08:50AM 48.9860 -95.0350 319° Northwest 442 509 32,000  Level FlightAware
08:50AM 49.0370 -95.1060 318° Northwest 442 509 32,000  Level FlightAware
08:51AM 49.0890 -95.1770 318° Northwest 442 509 32,000  Level FlightAware
08:52AM 49.1410 -95.2480 318° Northwest 442 509 32,000  Level FlightAware
08:52AM 49.2050 -95.3370 318° Northwest 442 509 32,000  Level FlightAware
08:53AM 49.2570 -95.4090 318° Northwest 442 509 32,000  Level FlightAware
08:54AM 49.3090 -95.4800 318° Northwest 442 509 32,000  Level FlightAware
08:54AM 49.3600 -95.5510 318° Northwest 442 509 32,000  Level FlightAware
08:55AM 49.4120 -95.6230 318° Northwest 442 509 32,000  Level FlightAware
08:56AM 49.4770 -95.7120 318° Northwest 442 509 32,000  Level FlightAware
08:57AM 49.6833 -95.9333 318° Northwest 470 541 32,000  Level Winnipeg Center
08:58AM 49.8000 -96.0333 331° Northwest 470 541 32,000  Level Winnipeg Center
09:03AM 50.4640 -96.6040 331° Northwest 465 535 32,000  Level FlightAware
09:04AM 50.5960 -96.7210 331° Northwest 465 535 32,000  Level FlightAware
09:05AM 50.6590 -96.7780 330° Northwest 465 535 32,000  Level FlightAware
09:06AM 50.7230 -96.8360 330° Northwest 465 535 32,000  Level FlightAware
09:06AM 50.7860 -96.8940 330° Northwest 465 535 32,000  Level FlightAware
09:07AM 50.9110 -96.9980 332° Northwest 462 532 32,000  Level FlightAware
09:08AM 51.0110 -97.0900 330° Northwest 460 529 32,000  Level FlightAware
09:09AM 51.0740 -97.1470 330° Northwest 460 529 32,000  Level FlightAware
09:09AM 51.1370 -97.2050 330° Northwest 460 529 32,000  Level FlightAware
09:10AM 51.2150 -97.2770 330° Northwest 460 529 32,000  Level FlightAware
09:11AM 51.3250 -97.3730 331° Northwest 460 529 32,000  Level FlightAware
09:12AM 51.3980 -97.4400 330° Northwest 460 529 32,000  Level FlightAware
09:12AM 51.4830 -97.5180 330° Northwest 460 529 32,000  Level FlightAware
09:13AM 51.5550 -97.5850 330° Northwest 460 529 32,000  Level FlightAware
09:14AM 51.6310 -97.6550 330° Northwest 461 531 32,000  Level FlightAware
09:14AM 51.7030 -97.7250 329° Northwest 461 531 32,000  Level FlightAware
09:15AM 51.7650 -97.7850 329° Northwest 461 531 32,000  Level FlightAware
09:16AM 51.8270 -97.8450 329° Northwest 461 531 32,000  Level FlightAware
09:16AM 51.8890 -97.9060 329° Northwest 461 531 32,000  Level FlightAware
09:17AM 51.9670 -97.9810 329° Northwest 461 531 32,000  Level FlightAware
09:18AM 52.0290 -98.0420 329° Northwest 461 531 32,000  Level FlightAware
09:19AM 52.0910 -98.1030 329° Northwest 461 531 32,000  Level FlightAware
09:19AM 52.1530 -98.1640 329° Northwest 461 531 32,000  Level FlightAware
09:20AM 52.2150 -98.2250 329° Northwest 461 531 32,000  Level FlightAware
09:21AM 52.2930 -98.3010 329° Northwest 461 531 32,000  Level FlightAware
09:21AM 52.3550 -98.3620 329° Northwest 461 531 32,000  Level FlightAware
09:22AM 52.4170 -98.4230 329° Northwest 461 531 32,000  Level FlightAware
09:23AM 52.4790 -98.4850 329° Northwest 461 531 32,000  Level FlightAware
09:23AM 52.5420 -98.5460 330° Northwest 461 531 32,000  Level FlightAware
09:24AM 52.7500 -98.7333 330° Northwest 470 541 32,000  Level Edmonton Center
09:25AM 52.8667 -98.8333 333° Northwest 470 541 32,000  Level Edmonton Center
09:26AM 52.9667 -98.9333 329° Northwest 480 552 32,000  Level Winnipeg Center
09:27AM 53.0833 -99.0833 322° Northwest 490 564 32,000  Level Winnipeg Center
09:28AM 53.1833 -99.1667 333° Northwest 480 552 32,000  Level Winnipeg Center
09:28AM 53.2167 -99.2000 329° Northwest 480 552 32,000  Level Edmonton Center
09:29AM 53.3333 -99.3000 333° Northwest 470 541 32,000  Level Edmonton Center
09:30AM 53.4500 -99.4167 329° Northwest 490 564 32,000  Level Edmonton Center
09:35AM 54.1300 -100.1560 329° Northwest 500 575 32,000  Level FlightAware
09:36AM 54.2050 -100.2470 325° Northwest 499 574 32,000  Level FlightAware
09:37AM 54.2840 -100.3430 325° Northwest 498 573 32,000  Level FlightAware
09:37AM 54.3510 -100.4250 325° Northwest 496 571 32,000  Level FlightAware
09:38AM 54.4120 -100.4980 325° Northwest 496 571 32,000  Level FlightAware
09:39AM 54.4910 -100.5940 325° Northwest 496 571 32,000  Level FlightAware
09:40AM 54.5550 -100.6710 325° Northwest 496 571 32,000  Level FlightAware
09:40AM 54.6190 -100.7480 325° Northwest 496 571 32,000  Level FlightAware
09:41AM 54.6830 -100.8260 325° Northwest 496 571 32,000  Level FlightAware
09:42AM 54.7630 -100.9230 325° Northwest 496 571 32,000  Level FlightAware
09:42AM 54.8270 -101.0000 325° Northwest 496 571 32,000  Level FlightAware
09:43AM 54.8910 -101.0780 325° Northwest 496 571 32,000  Level FlightAware
09:44AM 54.9550 -101.1560 325° Northwest 496 571 32,000  Level FlightAware
09:44AM 55.0190 -101.2340 325° Northwest 496 571 32,000  Level FlightAware
09:45AM 55.0990 -101.3320 325° Northwest 496 571 32,000  Level FlightAware
09:46AM 55.1620 -101.4100 325° Northwest 496 571 32,000  Level FlightAware
09:47AM 55.2260 -101.4880 325° Northwest 496 571 32,000  Level FlightAware
09:47AM 55.2900 -101.5670 325° Northwest 496 571 32,000  Level FlightAware
09:48AM 55.4500 -101.8333 325° Northwest 460 529 32,000  Level Winnipeg Center
09:48AM 55.4500 -101.8500 270° West 450 518 32,000  Level Edmonton Center
09:49AM 55.5833 -102.0000 328° Northwest 450 518 32,000  Level Edmonton Center
09:50AM 55.6500 -102.1000 320° Northwest 450 518 32,000  Level Winnipeg Center
09:51AM 55.7500 -102.2333 323° Northwest 440 506 32,000  Level Winnipeg Center
09:51AM 55.7667 -102.2500 331° Northwest 440 506 32,000  Level Edmonton Center
09:52AM 55.8667 -102.3667 327° Northwest 450 518 32,000  Level Edmonton Center
09:53AM 55.9500 -102.5167 315° West 460 529 32,000  Level Winnipeg Center
09:54AM 56.0667 -102.6667 324° Northwest 470 541 32,000  Level Winnipeg Center
09:55AM 56.1500 -102.8000 318° Northwest 460 529 32,000  Level Winnipeg Center
09:56AM 56.2667 -102.9333 328° Northwest 460 529 32,000  Level Winnipeg Center
09:57AM 56.3667 -103.0667 324° Northwest 460 529 32,000  Level Winnipeg Center
09:58AM 56.4667 -103.2333 317° Northwest 470 541 32,000  Level Winnipeg Center
09:59AM 56.5667 -103.3667 324° Northwest 470 541 32,000  Level Winnipeg Center
10:00AM 56.6667 -103.5167 321° Northwest 470 541 32,000  Level Winnipeg Center
10:01AM 56.7667 -103.6500 324° Northwest 470 541 32,000  Level Winnipeg Center
10:02AM 56.9000 -103.8333 323° Northwest 470 541 32,000  Level Winnipeg Center
10:03AM 56.9833 -103.9667 319° Northwest 470 541 32,000  Level Winnipeg Center
10:04AM 57.0833 -104.1000 324° Northwest 470 541 32,000  Level Winnipeg Center
10:05AM 57.1833 -104.2833 315° West 460 529 32,000  Level Winnipeg Center
10:06AM 57.2833 -104.4333 321° Northwest 460 529 32,000  Level Winnipeg Center
10:07AM 57.3667 -104.6000 313° West 470 541 32,000  Level Winnipeg Center
10:08AM 57.4667 -104.7667 318° Northwest 470 541 32,000  Level Winnipeg Center
10:09AM 57.5667 -104.9500 316° Northwest 480 552 32,000  Level Winnipeg Center
10:10AM 57.6500 -105.1000 316° Northwest 470 541 32,000  Level Winnipeg Center
10:11AM 57.7667 -105.2833 320° Northwest 470 541 32,000  Level Edmonton Center
10:12AM 57.8667 -105.4667 316° Northwest 470 541 32,000  Level Edmonton Center
10:13AM 57.9500 -105.6333 313° West 480 552 32,000  Level Winnipeg Center
10:14AM 58.0333 -105.8167 311° West 480 552 32,000  Level Winnipeg Center
10:15AM 58.1333 -105.9667 322° Northwest 480 552 32,000  Level Winnipeg Center
10:16AM 58.2333 -106.1500 316° Northwest 480 552 32,000  Level Winnipeg Center
10:16AM 58.2333 -106.1500 316° Northwest 470 541 32,000  Level Edmonton Center
10:17AM 58.3333 -106.3500 314° West 470 541 32,000  Level Edmonton Center
10:18AM 58.4167 -106.5167 314° West 470 541 32,000  Level Edmonton Center
10:19AM 58.5167 -106.7167 314° West 470 541 32,000  Level Edmonton Center
10:20AM 58.6167 -106.8833 319° Northwest 470 541 32,000  Level Edmonton Center
10:21AM 58.7167 -107.0833 314° West 470 541 32,000  Level Edmonton Center
10:22AM 58.8000 -107.2500 314° West 470 541 32,000  Level Edmonton Center
10:23AM 58.9000 -107.4167 319° Northwest 470 541 32,000  Level Edmonton Center
10:24AM 59.0000 -107.6333 312° West 470 541 32,000  Level Edmonton Center
10:25AM 59.0833 -107.8000 314° West 470 541 32,000  Level Edmonton Center
10:26AM 59.1833 -108.0000 314° West 470 541 32,000  Level Edmonton Center
10:27AM 59.2667 -108.1833 312° West 470 541 32,000  Level Edmonton Center
10:28AM 59.3500 -108.3500 314° West 470 541 32,000  Level Edmonton Center
10:29AM 59.4500 -108.5667 312° West 470 541 32,000  Level Edmonton Center
10:30AM 59.5500 -108.7500 317° Northwest 470 541 32,000  Level Edmonton Center
10:31AM 59.6333 -108.9500 310° West 470 541 32,000  Level Edmonton Center
10:32AM 59.7167 -109.1333 312° West 470 541 32,000  Level Edmonton Center
10:33AM 59.8167 -109.3167 317° Northwest 470 541 32,000  Level Edmonton Center
10:34AM 59.9000 -109.5333 308° West 470 541 32,000  Level Edmonton Center
10:35AM 60.0000 -109.7167 318° Northwest 470 541 32,000  Level Edmonton Center
10:36AM 60.0667 -109.9000 306° West 470 541 32,000  Level Edmonton Center
10:37AM 60.1667 -110.1167 313° West 470 541 32,000  Level Edmonton Center
10:38AM 60.2500 -110.3333 308° West 460 529 32,000  Level Edmonton Center
10:39AM 60.3500 -110.5167 318° Northwest 460 529 32,000  Level Edmonton Center
10:40AM 60.4333 -110.7000 313° West 480 552 32,000  Level Edmonton Center
10:41AM 60.5167 -110.9000 310° West 470 541 32,000  Level Edmonton Center
10:42AM 60.6167 -111.1167 313° West 470 541 32,000  Level Edmonton Center
10:43AM 60.7000 -111.3167 310° West 460 529 32,000  Level Edmonton Center
10:44AM 60.7833 -111.5000 313° West 460 529 32,000  Level Edmonton Center
10:45AM 60.8833 -111.7333 311° West 460 529 32,000  Level Edmonton Center
10:46AM 60.9500 -111.9167 307° West 460 529 32,000  Level Edmonton Center
10:47AM 61.0500 -112.1167 316° Northwest 460 529 32,000  Level Edmonton Center
10:48AM 61.1333 -112.3167 311° West 470 541 32,000  Level Edmonton Center
10:49AM 61.2167 -112.5167 311° West 460 529 32,000  Level Edmonton Center
10:50AM 61.3000 -112.7167 311° West 460 529 32,000  Level Edmonton Center
10:51AM 61.4000 -112.9167 316° Northwest 460 529 32,000  Level Edmonton Center
10:52AM 61.4667 -113.1000 307° West 460 529 32,000  Level Edmonton Center
10:53AM 61.5500 -113.3500 305° West 460 529 32,000  Level Edmonton Center
10:54AM 61.6500 -113.5500 317° Northwest 460 529 32,000  Level Edmonton Center
10:55AM 61.7333 -113.7500 311° West 460 529 32,000  Level Edmonton Center
10:56AM 61.8167 -113.9667 309° West 460 529 32,000  Level Edmonton Center
10:57AM 61.9167 -114.1667 317° Northwest 460 529 32,000  Level Edmonton Center
10:58AM 61.9833 -114.3667 305° West 460 529 32,000  Level Edmonton Center
10:59AM 62.0667 -114.5833 309° West 470 541 32,000  Level Edmonton Center
11:00AM 62.1667 -114.8000 315° West 470 541 32,000  Level Edmonton Center
11:01AM 62.2500 -115.0500 306° West 470 541 32,000  Level Edmonton Center
11:02AM 62.3333 -115.2500 312° West 470 541 32,000  Level Edmonton Center
11:03AM 62.4000 -115.4667 304° West 470 541 32,000  Level Edmonton Center
11:04AM 62.4833 -115.6833 310° West 460 529 32,000  Level Edmonton Center
11:05AM 62.5833 -115.9000 315° West 460 529 32,000  Level Edmonton Center
11:06AM 62.6667 -116.1167 310° West 460 529 32,000  Level Edmonton Center
11:07AM 62.7500 -116.3333 310° West 460 529 32,000  Level Edmonton Center
11:08AM 62.8167 -116.5500 304° West 460 529 32,000  Level Edmonton Center
11:09AM 62.9000 -116.7667 310° West 460 529 32,000  Level Edmonton Center
11:10AM 62.9833 -117.0333 305° West 460 529 32,000  Level Edmonton Center
11:11AM 63.0667 -117.2667 308° West 460 529 32,000  Level Edmonton Center
11:12AM 63.1500 -117.4833 310° West 460 529 32,000  Level Edmonton Center
11:13AM 63.2333 -117.7167 308° West 460 529 32,000  Level Edmonton Center
11:14AM 63.3000 -117.9333 304° West 460 529 32,000  Level Edmonton Center
11:15AM 63.3833 -118.1667 309° West 460 529 32,000  Level Edmonton Center
11:16AM 63.4667 -118.4000 309° West 460 529 32,000  Level Edmonton Center
11:17AM 63.5333 -118.6167 305° West 460 529 32,000  Level Edmonton Center
11:18AM 63.6167 -118.8500 309° West 450 518 32,000  Level Edmonton Center
11:19AM 63.6833 -119.0833 303° West 450 518 32,000  Level Edmonton Center
11:20AM 63.7500 -119.3167 303° West 450 518 32,000  Level Edmonton Center
11:21AM 63.8333 -119.5500 309° West 450 518 32,000  Level Edmonton Center
11:22AM 63.9167 -119.7833 309° West 460 529 32,000  Level Edmonton Center
11:23AM 64.0000 -120.0333 307° West 450 518 32,000  Level Edmonton Center
11:24AM 64.0667 -120.2667 303° West 450 518 32,000  Level Edmonton Center
11:25AM 64.1500 -120.4833 311° West 450 518 32,000  Level Edmonton Center
11:26AM 64.2333 -120.7167 309° West 450 518 32,000  Level Edmonton Center
11:27AM 64.3167 -120.9333 312° West 450 518 32,000  Level Edmonton Center
11:28AM 64.4000 -121.1333 314° West 460 529 32,000  Level Edmonton Center
11:30AM 64.5431 -121.5035 312° West  Level FlightAware Approximate
11:37AM 65.1393 -123.1175 312° West  Level FlightAware Approximate
11:38AM 65.2231 -123.3539 310° West  Level FlightAware Approximate
11:39AM 65.3064 -123.5919 310° West  Level FlightAware Approximate
11:40AM 65.3894 -123.8314 310° West  Level FlightAware Approximate
11:41AM 65.4720 -124.0723 310° West  Level FlightAware Approximate
11:42AM 65.5542 -124.3148 309° West  Level FlightAware Approximate
11:43AM 65.6360 -124.5589 309° West  Level FlightAware Approximate
11:44AM 65.7175 -124.8045 309° West  Level FlightAware Approximate
11:45AM 65.7985 -125.0516 309° West  Level FlightAware Approximate
11:46AM 65.8791 -125.3003 308° West  Level FlightAware Approximate
11:47AM 65.9594 -125.5505 308° West  Level FlightAware Approximate
11:48AM 66.0392 -125.8024 308° West  Level FlightAware Approximate
11:49AM 66.1186 -126.0557 308° West  Level FlightAware Approximate
11:50AM 66.1976 -126.3107 308° West  Level FlightAware Approximate
11:51AM 66.2762 -126.5673 307° West  Level FlightAware Approximate
11:52AM 66.3543 -126.8255 307° West  Level FlightAware Approximate
11:53AM 66.4308 -127.0879 306° West  Level FlightAware Approximate
11:54AM 66.5065 -127.3521 306° West  Level FlightAware Approximate
11:55AM 66.5817 -127.6180 306° West  Level FlightAware Approximate
11:56AM 66.6566 -127.8854 305° West  Level FlightAware Approximate
11:57AM 66.7309 -128.1545 305° West  Level FlightAware Approximate
11:58AM 66.8048 -128.4252 305° West  Level FlightAware Approximate
11:59AM 66.8783 -128.6975 305° West  Level FlightAware Approximate
12:00PM 66.9512 -128.9715 304° West  Level FlightAware Approximate
12:01PM 67.0237 -129.2471 304° West  Level FlightAware Approximate
12:02PM 67.0957 -129.5243 304° West  Level FlightAware Approximate
12:03PM 67.1673 -129.8032 304° West  Level FlightAware Approximate
12:04PM 67.2383 -130.0837 303° West  Level FlightAware Approximate
12:05PM 67.3088 -130.3659 303° West  Level FlightAware Approximate
12:06PM 67.3789 -130.6498 303° West  Level FlightAware Approximate
12:07PM 67.4484 -130.9353 303° West  Level FlightAware Approximate
12:08PM 67.5175 -131.2225 302° West  Level FlightAware Approximate
12:09PM 67.5860 -131.5114 302° West  Level FlightAware Approximate
12:10PM 67.6540 -131.8019 302° West  Level FlightAware Approximate
12:11PM 67.7215 -132.0942 301° West  Level FlightAware Approximate
12:12PM 67.7885 -132.3881 301° West  Level FlightAware Approximate
12:13PM 67.8549 -132.6836 301° West  Level FlightAware Approximate
12:14PM 67.9208 -132.9809 301° West  Level FlightAware Approximate
12:15PM 67.9861 -133.2798 300° West  Level FlightAware Approximate
12:16PM 68.0509 -133.5805 300° West  Level FlightAware Approximate
12:17PM 68.1152 -133.8828 300° West  Level FlightAware Approximate
12:18PM 68.1789 -134.1868 300° West  Level FlightAware Approximate
12:19PM 68.2405 -134.4945 294° West  Level FlightAware Approximate
12:20PM 68.2920 -134.8164 294° West  Level FlightAware Approximate
12:21PM 68.3429 -135.1398 293° West  Level FlightAware Approximate
12:22PM 68.3932 -135.4646 293° West  Level FlightAware Approximate
12:23PM 68.4428 -135.7908 293° West  Level FlightAware Approximate
12:24PM 68.4932 -136.1168 294° West  Level FlightAware Approximate
12:25PM 68.5445 -136.4426 293° West  Level FlightAware Approximate
12:26PM 68.5951 -136.7699 293° West  Level FlightAware Approximate
12:27PM 68.6451 -137.0987 293° West  Level FlightAware Approximate
12:28PM 68.6944 -137.4289 292° West  Level FlightAware Approximate
12:29PM 68.7422 -137.7616 292° West  Level FlightAware Approximate
12:30PM 68.7892 -138.0959 291° West  Level FlightAware Approximate
12:31PM 68.8355 -138.4315 291° West  Level FlightAware Approximate
12:31PM 68.8000 -138.6667 289° West 520 598 32,000  Level Anchorage Center
12:32PM 68.8812 -138.7685 291° West  Level FlightAware Approximate
12:32PM 68.8500 -139.0167 292° West 510 587 32,000  Level Anchorage Center
12:33PM 68.9262 -139.1069 290° West  Level FlightAware Approximate
12:33PM 68.9000 -139.3500 293° West 490 564 32,000  Level Anchorage Center
12:34PM 68.9705 -139.4467 290° West  Level FlightAware Approximate
12:34PM 68.9667 -139.6833 299° West 490 564 32,000  Level Anchorage Center
12:35PM 69.0142 -139.7879 290° West  Level FlightAware Approximate
12:35PM 69.0167 -140.0167 293° West 480 552 32,000  Level Anchorage Center
12:36PM 69.0571 -140.1304 289° West  Level FlightAware Approximate
12:36PM 69.0667 -140.3500 293° West 470 541 32,000  Level Anchorage Center
12:37PM 69.1167 -140.6833 293° West 480 552 32,000  Level Anchorage Center
12:38PM 69.1667 -141.0333 292° West 480 552 32,000 360 Level Anchorage Center
12:39PM 69.2000 -141.3833 285° West 470 541 32,800 900 Climbing Anchorage Center
12:40PM 69.2500 -141.7333 292° West 480 552 33,900 600 Climbing Anchorage Center
12:41PM 69.2833 -142.1000 285° West 480 552 34,000  Climbing Anchorage Center
12:42PM 69.3167 -142.4667 285° West 480 552 34,000  Level Anchorage Center
12:43PM 69.3500 -142.8333 285° West 480 552 34,000  Level Anchorage Center
12:44PM 69.3833 -143.2000 285° West 480 552 34,000  Level Anchorage Center
12:45PM 69.4333 -143.5667 291° West 480 552 34,000  Level Anchorage Center
12:46PM 69.4667 -143.9333 285° West 480 552 34,000  Level Anchorage Center
12:47PM 69.4833 -144.3000 278° West 470 541 34,000  Level Anchorage Center
12:48PM 69.5167 -144.6833 284° West 480 552 34,000  Level Anchorage Center
12:49PM 69.5500 -145.0500 285° West 480 552 34,000  Level Anchorage Center
12:50PM 69.5833 -145.4000 285° West 480 552 34,000  Level Anchorage Center
12:51PM 69.6167 -145.7833 284° West 480 552 34,000  Level Anchorage Center
12:52PM 69.6333 -146.0833 279° West 480 552 34,000  Level Anchorage Center
12:53PM 69.6667 -146.4500 285° West 480 552 34,000  Level Anchorage Center
12:54PM 69.7000 -146.8333 284° West 480 552 34,000  Level Anchorage Center
12:55PM 69.7167 -147.2000 278° West 480 552 34,000  Level Anchorage Center
12:56PM 69.7500 -147.5833 284° West 480 552 34,000  Level Anchorage Center
12:57PM 69.7833 -147.9667 284° West 480 552 34,000  Level Anchorage Center
12:58PM 69.8000 -148.3500 277° West 480 552 34,000  Level Anchorage Center
12:59PM 69.8333 -148.7333 284° West 480 552 34,000  Level Anchorage Center
01:00PM 69.8500 -149.1167 277° West 480 552 34,000  Level Anchorage Center
01:01PM 69.8667 -149.5000 277° West 490 564 34,000  Level Anchorage Center
01:02PM 69.8833 -149.9000 277° West 480 552 34,000  Level Anchorage Center
01:03PM 69.9167 -150.2833 284° West 480 552 34,000  Level Anchorage Center
01:04PM 69.9333 -150.6667 277° West 490 564 34,000  Level Anchorage Center
01:05PM 69.9500 -151.0667 277° West 480 552 34,000  Level Anchorage Center
01:06PM 69.9667 -151.4500 277° West 480 552 34,000  Level Anchorage Center
01:07PM 69.9833 -151.8333 277° West 480 552 34,000  Level Anchorage Center
01:08PM 70.0000 -152.2167 277° West 480 552 34,000  Level Anchorage Center
01:09PM 70.0333 -152.6000 284° West 470 541 34,000  Level Anchorage Center
01:10PM 70.0667 -152.9833 284° West 480 552 34,000  Level Anchorage Center
01:11PM 70.0833 -153.3667 277° West 480 552 34,000  Level Anchorage Center
01:12PM 70.1000 -153.7000 279° West 480 552 34,000  Level Anchorage Center
01:13PM 70.1333 -154.0667 285° West 470 541 34,000  Level Anchorage Center
01:14PM 70.1500 -154.4667 277° West 480 552 34,000  Level Anchorage Center
01:15PM 70.1667 -154.8333 278° West 470 541 34,000  Level Anchorage Center
01:16PM 70.2000 -155.2167 285° West 470 541 34,000  Level Anchorage Center
01:17PM 70.2167 -155.6167 277° West 480 552 34,000  Level Anchorage Center
01:18PM 70.2333 -156.0000 278° West 480 552 34,000  Level Anchorage Center
01:19PM 70.2500 -156.3833 278° West 480 552 34,000  Level Anchorage Center
01:20PM 70.2667 -156.7833 277° West 480 552 34,000  Level Anchorage Center
01:21PM 70.2833 -157.1667 278° West 470 541 34,000  Level Anchorage Center
01:22PM 70.3000 -157.5500 278° West 480 552 34,000  Level Anchorage Center
01:23PM 70.3167 -157.9500 277° West 480 552 34,000  Level Anchorage Center
01:24PM 70.3333 -158.3333 278° West 480 552 34,000  Level Anchorage Center
01:25PM 70.3500 -158.7333 277° West 480 552 34,000  Level Anchorage Center
01:26PM 70.3667 -159.1333 277° West 490 564 34,000  Level Anchorage Center
01:27PM 70.3667 -159.5000 270° West 460 529 34,000  Level Anchorage Center
01:28PM 70.3833 -159.9000 277° West 470 541 34,000  Level Anchorage Center
01:29PM 70.4000 -160.2833 278° West 480 552 34,000  Level Anchorage Center
01:30PM 70.4000 -160.6833 270° West 470 541 34,000  Level Anchorage Center
01:31PM 70.4167 -161.0667 278° West 480 552 34,000  Level Anchorage Center
01:32PM 70.4167 -161.4500 270° West 470 541 34,000  Level Anchorage Center
01:33PM 70.4167 -161.8500 270° West 470 541 34,000  Level Anchorage Center
01:34PM 70.4333 -162.2333 278° West 470 541 34,000  Level Anchorage Center
01:35PM 70.4333 -162.6167 270° West 460 529 34,000  Level Anchorage Center
01:36PM 70.4333 -163.0167 270° West 470 541 34,000  Level Anchorage Center
01:37PM 70.4500 -163.4000 278° West 470 541 34,000  Level Anchorage Center
01:38PM 70.4500 -163.8000 270° West 470 541 34,000  Level Anchorage Center
01:39PM 70.4500 -164.1833 270° West 470 541 34,000  Level Anchorage Center
01:40PM 70.4500 -164.5667 270° West 470 541 34,000  Level Anchorage Center
01:41PM 70.4500 -164.9500 270° West 470 541 34,000  Level Anchorage Center
01:42PM 70.4500 -165.3500 270° West 470 541 34,000  Level Anchorage Center
01:43PM 70.4500 -165.7333 270° West 470 541 34,000  Level Anchorage Center
01:44PM 70.4333 -166.1167 263° West 470 541 34,000  Level Anchorage Center
01:45PM 70.4333 -166.5167 270° West 470 541 34,000  Level Anchorage Center
01:46PM 70.4333 -166.9167 270° West 480 552 34,000  Level Anchorage Center
01:47PM 70.4333 -167.3000 270° West 470 541 34,000  Level Anchorage Center
01:50PM 70.4219 -167.9636 267° West  Level FlightAware Approximate
01:57PM 70.2147 -170.5686 252° West  Level FlightAware Approximate
01:58PM 70.1706 -170.9285 250° West  Level FlightAware Approximate
01:59PM 70.1258 -171.2868 250° West  Level FlightAware Approximate
02:00PM 70.0803 -171.6436 250° West  Level FlightAware Approximate
02:01PM 70.0340 -171.9989 249° West  Level FlightAware Approximate
02:02PM 69.9871 -172.3525 249° West  Level FlightAware Approximate
02:03PM 69.9395 -172.7045 249° West  Level FlightAware Approximate
02:04PM 69.8912 -173.0549 248° West  Level FlightAware Approximate
02:05PM 69.8422 -173.4037 248° West  Level FlightAware Approximate
02:06PM 69.7925 -173.7509 248° West  Level FlightAware Approximate
02:07PM 69.7421 -174.0964 247° West  Level FlightAware Approximate
02:08PM 69.6911 -174.4403 247° West  Level FlightAware Approximate
02:09PM 69.6394 -174.7825 247° West  Level FlightAware Approximate
02:10PM 69.5870 -175.1230 246° West  Level FlightAware Approximate
02:11PM 69.5340 -175.4619 246° West  Level FlightAware Approximate
02:12PM 69.4803 -175.7990 246° West  Level FlightAware Approximate
02:13PM 69.4259 -176.1345 245° Southwest  Level FlightAware Approximate
02:14PM 69.3709 -176.4683 245° Southwest  Level FlightAware Approximate
02:15PM 69.3153 -176.8003 245° Southwest  Level FlightAware Approximate
02:16PM 69.2591 -177.1307 244° Southwest  Level FlightAware Approximate
02:17PM 69.2022 -177.4593 244° Southwest  Level FlightAware Approximate
02:18PM 69.1447 -177.7862 244° Southwest  Level FlightAware Approximate
02:19PM 69.0866 -178.1114 244° Southwest  Level FlightAware Approximate
02:20PM 69.0279 -178.4349 243° Southwest  Level FlightAware Approximate
02:21PM 68.9685 -178.7566 243° Southwest  Level FlightAware Approximate
02:22PM 68.9141 -179.0842 245° Southwest  Level FlightAware Approximate
02:23PM 68.8572 -179.4072 237° Southwest  Level FlightAware Approximate
02:24PM 68.7864 -179.7079 237° Southwest  Level FlightAware Approximate
02:25PM 68.7152 -180.0069 239° Southwest  Level FlightAware Approximate
02:26PM 68.6480 -180.3119 239° Southwest  Level FlightAware Approximate
02:27PM 68.5802 -180.6151 239° Southwest  Level FlightAware Approximate
02:28PM 68.5119 -180.9164 238° Southwest  Level FlightAware Approximate
02:29PM 68.4431 -181.2160 238° Southwest  Level FlightAware Approximate
02:30PM 68.3737 -181.5137 238° Southwest  Level FlightAware Approximate
02:31PM 68.3038 -181.8096 238° Southwest  Level FlightAware Approximate
02:31PM 68.1320 177.4150 237° Southwest 487 560 36,000  Level FlightAware
02:32PM 68.2334 -182.1037 237° Southwest  Level FlightAware Approximate
02:32PM 68.0760 177.1880 237° Southwest 486 559 36,000  Level FlightAware
02:32PM 68.0240 176.9810 236° Southwest 487 560 36,000  Level FlightAware
02:33PM 67.9760 176.7910 236° Southwest 486 559 36,000  Level FlightAware
02:34PM 67.9220 176.5800 236° Southwest 485 558 36,000  Level FlightAware
02:34PM 67.8670 176.3690 235° Southwest 484 557 36,000  Level FlightAware
02:35PM 67.8110 176.1520 236° Southwest 486 559 36,000  Level FlightAware
02:36PM 67.7310 175.8500 235° Southwest 486 559 36,000  Level FlightAware
02:37PM 67.6690 175.6170 235° Southwest 488 562 36,000  Level FlightAware
02:38PM 67.6210 175.4370 235° Southwest 488 562 36,000  Level FlightAware
02:38PM 67.5540 175.1890 235° Southwest 489 563 36,000  Level FlightAware
02:39PM 67.4940 174.9720 234° Southwest 490 564 36,000  Level FlightAware
02:40PM 67.4560 174.8360 234° Southwest 489 563 36,000  Level FlightAware
02:41PM 67.3850 174.5820 234° Southwest 491 565 36,000  Level FlightAware
02:41PM 67.3250 174.3690 234° Southwest 492 566 36,000  Level FlightAware
02:42PM 67.2550 174.1230 234° Southwest 493 567 36,000  Level FlightAware
02:43PM 67.1910 173.9020 233° Southwest 494 568 36,000  Level FlightAware
02:43PM 67.1520 173.7700 233° Southwest 494 568 36,000  Level FlightAware
02:44PM 67.0780 173.5190 233° Southwest 496 571 36,000  Level FlightAware
02:45PM 67.0500 173.4220 234° Southwest 496 571 36,000  Level FlightAware
02:46PM 66.9730 173.1650 233° Southwest 496 571 36,000  Level FlightAware
02:46PM 66.9120 172.9640 232° Southwest 497 572 36,000  Level FlightAware
02:47PM 66.8530 172.7710 232° Southwest 497 572 36,000  Level FlightAware
02:48PM 66.8050 172.6150 232° Southwest 497 572 36,000  Level FlightAware
02:48PM 66.7430 172.4130 232° Southwest 498 573 36,000  Level FlightAware
02:49PM 66.6730 172.1900 232° Southwest 499 574 36,000  Level FlightAware
02:50PM 66.6190 172.0180 232° Southwest 500 575 36,000  Level FlightAware
02:51PM 66.5560 171.8210 231° Southwest 501 577 36,000  Level FlightAware
02:51PM 66.4960 171.6350 231° Southwest 502 578 36,000  Level FlightAware
02:52PM 66.4420 171.4660 231° Southwest 501 577 36,000  Level FlightAware
02:53PM 66.3710 171.2480 231° Southwest 501 577 36,000  Level FlightAware
02:53PM 66.3140 171.0760 231° Southwest 500 575 36,000  Level FlightAware
02:54PM 66.2400 170.8500 231° Southwest 501 577 36,000  Level FlightAware
02:55PM 66.1910 170.7040 230° Southwest 502 578 36,000  Level FlightAware
02:56PM 66.1310 170.5260 230° Southwest 504 580 36,000  Level FlightAware
02:56PM 66.0530 170.2960 230° Southwest 503 579 36,000  Level FlightAware
02:57PM 65.9700 170.0550 230° Southwest 505 581 36,000  Level FlightAware
02:59PM 65.8550 169.7240 230° Southwest 507 583 36,000  Level FlightAware
02:59PM 65.7650 169.4680 229° Southwest 511 588 36,000  Level FlightAware
03:00PM 65.7030 169.2930 229° Southwest 514 592 36,000  Level FlightAware
03:01PM 65.6430 169.1270 229° Southwest 515 593 36,000  Level FlightAware
03:02PM 65.5680 168.9190 229° Southwest 517 595 36,000  Level FlightAware
03:02PM 65.4930 168.7150 229° Southwest 518 596 36,000  Level FlightAware
03:03PM 65.4300 168.5450 228° Southwest 519 597 36,000  Level FlightAware
03:04PM 65.3520 168.3350 228° Southwest 519 597 36,000  Level FlightAware
03:04PM 65.3030 168.2040 228° Southwest 519 597 36,000  Level FlightAware
03:05PM 65.2350 168.0230 228° Southwest 519 597 36,000  Level FlightAware
03:06PM 65.1800 167.8790 228° Southwest 519 597 36,000  Level FlightAware
03:06PM 65.1250 167.7340 228° Southwest 519 597 36,000  Level FlightAware
03:07PM 65.0710 167.5900 228° Southwest 519 597 36,000  Level FlightAware
03:08PM 65.0160 167.4460 228° Southwest 519 597 36,000  Level FlightAware
03:09PM 64.9480 167.2670 228° Southwest 519 597 36,000  Level FlightAware
03:09PM 64.8930 167.1240 228° Southwest 519 597 36,000  Level FlightAware
03:10PM 64.8380 166.9810 228° Southwest 519 597 36,000  Level FlightAware
03:11PM 64.7840 166.8390 228° Southwest 519 597 36,000  Level FlightAware
03:11PM 64.7290 166.6960 228° Southwest 519 597 36,000  Level FlightAware
03:12PM 64.6610 166.5190 228° Southwest 519 597 36,000  Level FlightAware
03:13PM 64.6060 166.3770 228° Southwest 519 597 36,000  Level FlightAware
03:13PM 64.5520 166.2360 228° Southwest 519 597 36,000  Level FlightAware
03:16PM 64.3635 165.8013 225° Southwest  Level FlightAware Approximate
03:17PM 64.2710 165.5915 225° Southwest  Level FlightAware Approximate
03:18PM 64.1783 165.3830 224° Southwest  Level FlightAware Approximate
03:19PM 64.0853 165.1760 224° Southwest  Level FlightAware Approximate
03:20PM 63.9920 164.9703 224° Southwest  Level FlightAware Approximate
03:21PM 63.8984 164.7660 224° Southwest  Level FlightAware Approximate
03:22PM 63.8061 164.5590 225° Southwest  Level FlightAware Approximate
03:23PM 63.7140 164.3527 225° Southwest  Level FlightAware Approximate
03:24PM 63.6215 164.1478 225° Southwest  Level FlightAware Approximate
03:25PM 63.5287 163.9441 224° Southwest  Level FlightAware Approximate
03:26PM 63.4357 163.7418 224° Southwest  Level FlightAware Approximate
03:27PM 63.3424 163.5408 224° Southwest  Level FlightAware Approximate
03:28PM 63.2488 163.3411 224° Southwest  Level FlightAware Approximate
03:29PM 63.1549 163.1427 224° Southwest  Level FlightAware Approximate
03:30PM 63.0607 162.9456 224° Southwest  Level FlightAware Approximate
03:31PM 62.9663 162.7498 223° Southwest  Level FlightAware Approximate
03:32PM 62.8716 162.5552 223° Southwest  Level FlightAware Approximate
03:33PM 62.7766 162.3619 223° Southwest  Level FlightAware Approximate
03:34PM 62.6814 162.1698 223° Southwest  Level FlightAware Approximate
03:35PM 62.5859 161.9789 223° Southwest  Level FlightAware Approximate
03:36PM 62.4901 161.7893 222° Southwest  Level FlightAware Approximate
03:37PM 62.3941 161.6009 222° Southwest  Level FlightAware Approximate
03:38PM 62.2979 161.4137 222° Southwest  Level FlightAware Approximate
03:39PM 62.2014 161.2277 222° Southwest  Level FlightAware Approximate
03:40PM 62.1046 161.0429 222° Southwest  Level FlightAware Approximate
03:41PM 62.0076 160.8592 222° Southwest  Level FlightAware Approximate
03:42PM 61.9104 160.6767 221° Southwest  Level FlightAware Approximate
03:43PM 61.8156 160.4897 229° Southwest  Level FlightAware Approximate
03:44PM 61.7310 160.2820 229° Southwest  Level FlightAware Approximate
03:45PM 61.6460 160.0755 229° Southwest  Level FlightAware Approximate
03:46PM 61.5607 159.8701 229° Southwest  Level FlightAware Approximate
03:47PM 61.4751 159.6658 229° Southwest  Level FlightAware Approximate
03:48PM 61.3892 159.4627 229° Southwest  Level FlightAware Approximate
03:49PM 61.3030 159.2606 228° Southwest  Level FlightAware Approximate
03:50PM 61.2165 159.0597 228° Southwest  Level FlightAware Approximate
03:51PM 61.1297 158.8599 228° Southwest  Level FlightAware Approximate
03:52PM 61.0426 158.6612 228° Southwest  Level FlightAware Approximate
03:53PM 60.9552 158.4635 228° Southwest  Level FlightAware Approximate
03:54PM 60.8676 158.2670 228° Southwest  Level FlightAware Approximate
03:55PM 60.7796 158.0715 227° Southwest  Level FlightAware Approximate
03:56PM 60.6914 157.8771 227° Southwest  Level FlightAware Approximate
03:57PM 60.6029 157.6838 227° Southwest  Level FlightAware Approximate
03:58PM 60.5141 157.4915 227° Southwest  Level FlightAware Approximate
03:59PM 60.4250 157.3003 227° Southwest  Level FlightAware Approximate
04:00PM 60.3357 157.1102 227° Southwest  Level FlightAware Approximate
04:01PM 60.2461 156.9210 226° Southwest  Level FlightAware Approximate
04:02PM 60.1562 156.7329 226° Southwest  Level FlightAware Approximate
04:03PM 60.0661 156.5459 226° Southwest  Level FlightAware Approximate
04:04PM 59.9757 156.3598 226° Southwest  Level FlightAware Approximate
04:05PM 59.8850 156.1748 226° Southwest  Level FlightAware Approximate
04:06PM 59.7941 155.9907 226° Southwest  Level FlightAware Approximate
04:07PM 59.7029 155.8077 225° Southwest  Level FlightAware Approximate
04:08PM 59.6115 155.6257 225° Southwest  Level FlightAware Approximate
04:09PM 59.5198 155.4446 225° Southwest  Level FlightAware Approximate
04:10PM 59.4279 155.2646 225° Southwest  Level FlightAware Approximate
04:11PM 59.3357 155.0855 225° Southwest  Level FlightAware Approximate
04:12PM 59.2433 154.9074 225° Southwest  Level FlightAware Approximate
04:13PM 59.1506 154.7302 224° Southwest  Level FlightAware Approximate
04:14PM 59.0577 154.5540 224° Southwest  Level FlightAware Approximate
04:15PM 58.9646 154.3788 224° Southwest  Level FlightAware Approximate
04:16PM 58.8712 154.2045 224° Southwest  Level FlightAware Approximate
04:17PM 58.7776 154.0312 224° Southwest  Level FlightAware Approximate
04:18PM 58.6838 153.8587 224° Southwest  Level FlightAware Approximate
04:19PM 58.5897 153.6873 224° Southwest  Level FlightAware Approximate
04:20PM 58.4954 153.5167 223° Southwest  Level FlightAware Approximate
04:21PM 58.4009 153.3470 223° Southwest  Level FlightAware Approximate
04:22PM 58.3061 153.1783 223° Southwest  Level FlightAware Approximate
04:23PM 58.2112 153.0104 223° Southwest  Level FlightAware Approximate
04:24PM 58.1160 152.8435 223° Southwest  Level FlightAware Approximate
04:25PM 58.0206 152.6774 223° Southwest  Level FlightAware Approximate
04:26PM 57.9249 152.5123 223° Southwest  Level FlightAware Approximate
04:27PM 57.8291 152.3479 222° Southwest  Level FlightAware Approximate
04:28PM 57.7331 152.1845 222° Southwest  Level FlightAware Approximate
04:29PM 57.6368 152.0220 222° Southwest  Level FlightAware Approximate
04:30PM 57.5404 151.8603 222° Southwest  Level FlightAware Approximate
04:31PM 57.4437 151.6994 222° Southwest  Level FlightAware Approximate
04:32PM 57.3468 151.5394 222° Southwest  Level FlightAware Approximate
04:33PM 57.2498 151.3803 222° Southwest  Level FlightAware Approximate
04:34PM 57.1525 151.2220 221° Southwest  Level FlightAware Approximate
04:35PM 57.0550 151.0645 221° Southwest  Level FlightAware Approximate
04:36PM 56.9574 150.9078 221° Southwest  Level FlightAware Approximate
04:37PM 56.8595 150.7520 221° Southwest  Level FlightAware Approximate
04:38PM 56.7615 150.5970 221° Southwest  Level FlightAware Approximate
04:39PM 56.6632 150.4428 221° Southwest  Level FlightAware Approximate
04:40PM 56.5648 150.2894 221° Southwest  Level FlightAware Approximate
04:41PM 56.4662 150.1367 221° Southwest  Level FlightAware Approximate
04:42PM 56.3674 149.9849 220° Southwest  Level FlightAware Approximate
04:43PM 56.2684 149.8339 220° Southwest  Level FlightAware Approximate
04:44PM 56.1692 149.6836 220° Southwest  Level FlightAware Approximate
04:45PM 56.0699 149.5341 220° Southwest  Level FlightAware Approximate
04:46PM 55.9703 149.3854 220° Southwest  Level FlightAware Approximate
04:47PM 55.8706 149.2375 220° Southwest  Level FlightAware Approximate
04:48PM 55.7709 149.0900 220° Southwest  Level FlightAware Approximate
04:49PM 55.6712 148.9427 220° Southwest  Level FlightAware Approximate
04:50PM 55.5714 148.7961 220° Southwest  Level FlightAware Approximate
04:51PM 55.4714 148.6503 220° Southwest  Level FlightAware Approximate
04:52PM 55.3712 148.5052 219° Southwest  Level FlightAware Approximate
04:53PM 55.2709 148.3608 219° Southwest  Level FlightAware Approximate
04:54PM 55.1704 148.2172 219° Southwest  Level FlightAware Approximate
04:55PM 55.0697 148.0743 219° Southwest  Level FlightAware Approximate
04:56PM 54.9688 147.9321 219° Southwest  Level FlightAware Approximate
04:57PM 54.8678 147.7906 219° Southwest  Level FlightAware Approximate
04:58PM 54.7667 147.6499 219° Southwest  Level FlightAware Approximate
04:59PM 54.6653 147.5098 219° Southwest  Level FlightAware Approximate
05:00PM 54.5638 147.3704 219° Southwest  Level FlightAware Approximate
05:01PM 54.4622 147.2317 218° Southwest  Level FlightAware Approximate
05:02PM 54.3603 147.0938 218° Southwest  Level FlightAware Approximate
05:03PM 54.2584 146.9564 218° Southwest  Level FlightAware Approximate
05:04PM 54.1562 146.8198 218° Southwest  Level FlightAware Approximate
05:05PM 54.0540 146.6839 218° Southwest  Level FlightAware Approximate
05:06PM 53.9515 146.5486 218° Southwest  Level FlightAware Approximate
05:07PM 53.8489 146.4139 218° Southwest  Level FlightAware Approximate
05:08PM 53.7462 146.2800 218° Southwest  Level FlightAware Approximate
05:09PM 53.6433 146.1467 218° Southwest  Level FlightAware Approximate
05:10PM 53.5403 146.0140 217° Southwest  Level FlightAware Approximate
05:11PM 53.4371 145.8820 217° Southwest  Level FlightAware Approximate
05:12PM 53.3338 145.7506 217° Southwest  Level FlightAware Approximate
05:13PM 53.2303 145.6198 217° Southwest  Level FlightAware Approximate
05:14PM 53.1267 145.4897 217° Southwest  Level FlightAware Approximate
05:15PM 53.0230 145.3602 217° Southwest  Level FlightAware Approximate
05:16PM 52.9191 145.2314 217° Southwest  Level FlightAware Approximate
05:17PM 52.8149 145.1035 216° Southwest  Level FlightAware Approximate
05:18PM 52.7104 144.9767 216° Southwest  Level FlightAware Approximate
05:19PM 52.6057 144.8504 216° Southwest  Level FlightAware Approximate
05:20PM 52.5009 144.7248 216° Southwest  Level FlightAware Approximate
05:21PM 52.3960 144.5997 216° Southwest  Level FlightAware Approximate
05:22PM 52.2910 144.4753 216° Southwest  Level FlightAware Approximate
05:23PM 52.1858 144.3514 216° Southwest  Level FlightAware Approximate
05:24PM 52.0805 144.2282 216° Southwest  Level FlightAware Approximate
05:25PM 51.9750 144.1055 216° Southwest  Level FlightAware Approximate
05:26PM 51.8695 143.9834 216° Southwest  Level FlightAware Approximate
05:27PM 51.7638 143.8618 215° Southwest  Level FlightAware Approximate
05:28PM 51.6580 143.7408 215° Southwest  Level FlightAware Approximate
05:29PM 51.5520 143.6204 215° Southwest  Level FlightAware Approximate
05:30PM 51.4460 143.5006 215° Southwest  Level FlightAware Approximate
05:31PM 51.3398 143.3813 215° Southwest  Level FlightAware Approximate
05:32PM 51.2335 143.2625 215° Southwest  Level FlightAware Approximate
05:33PM 51.1271 143.1443 215° Southwest  Level FlightAware Approximate
05:34PM 51.0205 143.0267 215° Southwest  Level FlightAware Approximate
05:35PM 50.9139 142.9096 215° Southwest  Level FlightAware Approximate
05:36PM 50.8071 142.7930 215° Southwest  Level FlightAware Approximate
05:37PM 50.7002 142.6770 215° Southwest  Level FlightAware Approximate
05:38PM 50.5932 142.5614 214° Southwest  Level FlightAware Approximate
05:39PM 50.4861 142.4464 214° Southwest  Level FlightAware Approximate
05:40PM 50.3789 142.3320 214° Southwest  Level FlightAware Approximate
05:41PM 50.2715 142.2180 214° Southwest  Level FlightAware Approximate
05:42PM 50.1641 142.1046 214° Southwest  Level FlightAware Approximate
05:43PM 50.0565 141.9916 214° Southwest  Level FlightAware Approximate
05:44PM 49.9488 141.8792 214° Southwest  Level FlightAware Approximate
05:45PM 49.8411 141.7673 214° Southwest  Level FlightAware Approximate
05:46PM 49.7332 141.6559 214° Southwest  Level FlightAware Approximate
05:47PM 49.6252 141.5449 214° Southwest  Level FlightAware Approximate
05:48PM 49.5171 141.4345 214° Southwest  Level FlightAware Approximate
05:49PM 49.4089 141.3245 213° Southwest  Level FlightAware Approximate
05:50PM 49.3006 141.2151 213° Southwest  Level FlightAware Approximate
05:51PM 49.1922 141.1061 213° Southwest  Level FlightAware Approximate
05:52PM 49.0836 140.9976 213° Southwest  Level FlightAware Approximate
05:53PM 48.9750 140.8895 213° Southwest  Level FlightAware Approximate
05:54PM 48.8663 140.7820 213° Southwest  Level FlightAware Approximate
05:55PM 48.7575 140.6749 213° Southwest  Level FlightAware Approximate
05:56PM 48.6486 140.5682 213° Southwest  Level FlightAware Approximate
05:57PM 48.5396 140.4620 213° Southwest  Level FlightAware Approximate
05:58PM 48.4305 140.3563 213° Southwest  Level FlightAware Approximate
05:59PM 48.3213 140.2510 213° Southwest  Level FlightAware Approximate
06:00PM 48.2120 140.1462 213° Southwest  Level FlightAware Approximate
06:01PM 48.1027 140.0416 213° Southwest  Level FlightAware Approximate
06:02PM 47.9933 139.9374 213° Southwest  Level FlightAware Approximate
06:03PM 47.8838 139.8337 212° Southwest  Level FlightAware Approximate
06:04PM 47.7742 139.7304 212° Southwest  Level FlightAware Approximate
06:04PM 46.7610 139.4520 212° Southwest 473 544 36,000  Level FlightAware
06:05PM 47.6645 139.6276 212° Southwest  Level FlightAware Approximate
06:05PM 46.6790 139.3680 215° Southwest 472 543 36,000  Level FlightAware
06:06PM 46.5800 139.2680 215° Southwest 471 542 36,000  Level FlightAware
06:06PM 46.5090 139.1960 215° Southwest 471 542 36,000  Level FlightAware
06:07PM 46.4270 139.1130 215° Southwest 471 542 36,000  Level FlightAware
06:08PM 46.3470 139.0330 215° Southwest 471 542 36,000  Level FlightAware
06:09PM 46.2550 138.9400 215° Southwest 471 542 36,000  Level FlightAware
06:09PM 46.1870 138.8730 214° Southwest 470 541 36,000  Level FlightAware
06:10PM 46.1250 138.8130 214° Southwest 470 541 36,000  Level FlightAware
06:11PM 46.0490 138.7390 214° Southwest 470 541 36,000  Level FlightAware
06:11PM 45.9870 138.6790 214° Southwest 470 541 36,000  Level FlightAware
06:12PM 45.9260 138.6200 214° Southwest 470 541 36,000  Level FlightAware
06:13PM 45.8650 138.5600 214° Southwest 470 541 36,000  Level FlightAware
06:13PM 45.8030 138.5010 214° Southwest 470 541 36,000  Level FlightAware
06:14PM 45.7270 138.4270 214° Southwest 470 541 36,000  Level FlightAware
06:15PM 45.6660 138.3680 214° Southwest 470 541 36,000  Level FlightAware
06:16PM 45.6040 138.3080 214° Southwest 470 541 36,000  Level FlightAware
06:16PM 45.5430 138.2490 214° Southwest 470 541 36,000  Level FlightAware
06:17PM 45.4820 138.1900 214° Southwest 470 541 36,000  Level FlightAware
06:18PM 45.4050 138.1170 214° Southwest 470 541 36,000  Level FlightAware
06:18PM 45.3440 138.0580 214° Southwest 470 541 36,000 -180 Level FlightAware
06:21PM 45.1794 137.7614 232° Southwest  Level Estimated
06:22PM 45.0988 137.6174 232° Southwest  Level Estimated
06:23PM 45.0181 137.4738 232° Southwest  Level Estimated
06:24PM 44.9371 137.3306 231° Southwest  Level Estimated
06:25PM 44.8560 137.1877 231° Southwest  Level Estimated
06:26PM 44.7747 137.0453 231° Southwest  Level Estimated
06:27PM 44.6932 136.9033 231° Southwest  Level Estimated
06:28PM 44.6116 136.7617 231° Southwest  Level Estimated
06:29PM 44.5298 136.6205 231° Southwest  Level Estimated
06:30PM 44.4478 136.4796 231° Southwest  Level Estimated
06:31PM 44.3656 136.3392 231° Southwest  Level Estimated
06:32PM 44.2833 136.1992 231° Southwest  Level Estimated
06:33PM 44.2008 136.0595 231° Southwest  Level Estimated
06:34PM 44.1181 135.9203 230° Southwest  Level Estimated
06:35PM 44.0352 135.7814 230° Southwest  Level Estimated
06:36PM 43.9522 135.6430 230° Southwest  Level Estimated
06:37PM 43.8690 135.5049 230° Southwest  Level Estimated
06:38PM 43.7857 135.3672 230° Southwest  Level Estimated
06:39PM 43.7022 135.2298 230° Southwest  Level Estimated
06:40PM 43.6185 135.0929 230° Southwest  Level Estimated
06:41PM 43.5347 134.9564 230° Southwest  Level Estimated
06:42PM 43.4507 134.8202 230° Southwest  Level Estimated
06:43PM 43.3665 134.6844 230° Southwest  Level Estimated
06:44PM 43.2822 134.5490 229° Southwest  Level Estimated
06:45PM 43.1977 134.4139 229° Southwest  Level Estimated
06:46PM 43.1131 134.2793 229° Southwest  Level Estimated
06:47PM 43.0283 134.1450 229° Southwest  Level Estimated
06:48PM 42.9433 134.0110 229° Southwest  Level Estimated
06:49PM 42.8582 133.8775 229° Southwest  Level Estimated
06:50PM 42.7729 133.7443 229° Southwest  Level Estimated
06:51PM 42.6875 133.6115 229° Southwest  Level Estimated
06:52PM 42.6020 133.4790 229° Southwest  Level Estimated
06:53PM 42.5162 133.3469 229° Southwest  Level Estimated
06:54PM 42.4304 133.2152 229° Southwest  Level Estimated
06:55PM 42.3443 133.0838 228° Southwest  Level Estimated
06:56PM 42.2582 132.9528 228° Southwest  Level Estimated
06:57PM 42.1719 132.8222 228° Southwest  Level Estimated
06:58PM 42.0854 132.6919 228° Southwest  Level Estimated
06:59PM 41.9988 132.5619 228° Southwest  Level Estimated
07:00PM 41.9120 132.4323 228° Southwest  Level Estimated
07:01PM 41.8251 132.3031 228° Southwest  Level Estimated
07:02PM 41.7380 132.1742 228° Southwest  Level Estimated
07:03PM 41.6508 132.0457 228° Southwest  Level Estimated
07:04PM 41.5635 131.9175 228° Southwest  Level Estimated
07:05PM 41.4760 131.7896 228° Southwest  Level Estimated
07:06PM 41.3884 131.6621 228° Southwest  Level Estimated
07:07PM 41.3007 131.5350 227° Southwest  Level Estimated
07:08PM 41.2127 131.4082 227° Southwest  Level Estimated
07:09PM 41.1247 131.2817 227° Southwest  Level Estimated
07:10PM 41.0365 131.1556 227° Southwest  Level Estimated
07:11PM 40.9482 131.0298 227° Southwest  Level Estimated
07:12PM 40.8598 130.9043 227° Southwest  Level Estimated
07:13PM 40.7712 130.7792 227° Southwest  Level Estimated
07:14PM 40.6824 130.6544 227° Southwest  Level Estimated
07:15PM 40.5936 130.5299 227° Southwest  Level Estimated
07:16PM 40.5046 130.4058 227° Southwest  Level Estimated
07:17PM 40.4155 130.2820 227° Southwest  Level Estimated
07:18PM 40.3262 130.1585 227° Southwest  Level Estimated
07:19PM 40.2368 130.0354 226° Southwest  Level Estimated
07:20PM 40.1473 129.9126 226° Southwest  Level Estimated
07:21PM 40.0577 129.7901 226° Southwest  Level Estimated
07:22PM 39.9679 129.6679 226° Southwest  Level Estimated
07:23PM 39.8780 129.5461 226° Southwest  Level Estimated
07:24PM 39.7880 129.4245 226° Southwest  Level Estimated
07:25PM 39.6978 129.3033 226° Southwest  Level Estimated
07:26PM 39.6075 129.1824 226° Southwest  Level Estimated
07:27PM 39.5171 129.0618 226° Southwest  Level Estimated
07:28PM 39.4266 128.9416 226° Southwest  Level Estimated
07:29PM 39.3359 128.8216 226° Southwest  Level Estimated
07:30PM 39.2452 128.7020 226° Southwest  Level Estimated
07:31PM 39.1543 128.5826 226° Southwest  Level Estimated
07:32PM 39.0632 128.4636 225° Southwest  Level Estimated
07:33PM 38.9721 128.3449 225° Southwest  Level Estimated
07:34PM 38.8808 128.2264 225° Southwest  Level Estimated
07:35PM 38.7895 128.1083 225° Southwest  Level Estimated
07:36PM 38.6979 127.9905 225° Southwest  Level Estimated
07:37PM 38.6063 127.8730 225° Southwest  Level Estimated
07:38PM 38.5146 127.7558 225° Southwest  Level Estimated
07:39PM 38.4227 127.6389 225° Southwest  Level Estimated
07:40PM 38.3308 127.5223 225° Southwest  Level Estimated
07:41PM 38.2387 127.4060 225° Southwest  Level Estimated
07:42PM 38.1465 127.2899 225° Southwest  Level Estimated
07:43PM 38.0542 127.1742 225° Southwest  Level Estimated
07:44PM 37.9618 127.0587 225° Southwest  Level Estimated
07:45PM 37.8692 126.9436 225° Southwest  Level Estimated
07:46PM 37.7766 126.8287 224° Southwest  Level Estimated
07:47PM 37.6838 126.7142 224° Southwest  Level Estimated
07:48PM 37.5910 126.5999 224° Southwest  Level Estimated
07:49PM 37.4980 126.4859 224° Southwest  Level Estimated
07:50PM 37.4691 126.4505 224° Southwest  Level Estimated
07:51PM 37.4691 126.4505 335° Northwest  Level Estimated
07:52PM 37.4691 126.4505 335° Northwest  Level Estimated
07:53PM 37.4691 126.4505 335° Northwest  Level Estimated
07:54PM 37.4691 126.4505 335° Northwest  Level Estimated
07:55PM 37.4691 126.4505 335° Northwest  Level Estimated
07:56PM 37.4691 126.4505 335° Northwest  Level Estimated
07:57PM 37.4691 126.4505 335° Northwest  Level Estimated
07:58PM 37.4691 126.4505 335° Northwest  Level Estimated
07:59PM 37.4691 126.4505 335° Northwest  Level Estimated
08:00PM 37.4691 126.4505 335° Northwest  Level Estimated
08:00PM 37.5590 127.8300 335° Northwest 325 374 18,000  Level FlightAware
08:01PM 37.4691 126.4505 335° Northwest  Level Estimated
08:01PM 37.5460 127.7590 257° West 329 379 16,600  Level FlightAware
08:02PM 37.5320 127.6830 257° West 324 373 16,000 -660 Descending FlightAware
08:02PM 37.5120 127.6010 253° West 326 375 15,700 -540 Descending FlightAware
08:03PM 37.4870 127.5330 245° Southwest 321 369 15,300 -960 Descending FlightAware
08:04PM 37.4590 127.4560 245° Southwest 327 376 14,400 -1,380 Descending FlightAware
08:04PM 37.4360 127.3890 247° West 328 377 13,400 -1,080 Descending FlightAware
08:05PM 37.4110 127.3160 247° West 301 346 13,000 -660 Descending FlightAware
08:06PM 37.3870 127.2470 246° West 284 327 12,500 -1,020 Descending FlightAware
08:06PM 37.3660 127.1880 246° West 255 293 11,600 -1,740 Descending FlightAware
08:07PM 37.3450 127.1280 246° West 255 293 10,100 -1,980 Descending FlightAware
08:08PM 37.3330 127.0930 247° West 257 296 9,300 -1,440 Descending FlightAware
08:08PM 37.3190 127.0530 246° West 249 287 8,800 -1,200 Descending FlightAware
08:09PM 37.3090 127.0250 246° West 249 287 8,200 -1,080 Descending FlightAware
08:09PM 37.3000 126.9980 247° West 242 278 8,000 -240 Descending FlightAware
08:09PM 37.2850 126.9560 246° West 242 278 8,000 -900 Level FlightAware
08:10PM 37.2750 126.9210 250° West 225 259 7,100 -1,200 Descending FlightAware
08:11PM 37.2690 126.8790 260° West 219 252 6,700 -1,140 Descending FlightAware
08:11PM 37.2590 126.8150 259° West 219 252 5,400 -900 Descending FlightAware
08:13PM 37.2500 126.7300 262° West 202 232 5,000 -360 Descending FlightAware
08:13PM 37.2550 126.7130 290° West 197 227 4,900 -180 Descending FlightAware
08:13PM 37.2640 126.6890 295° West 197 227 4,900  Level FlightAware
08:14PM 37.2830 126.6360 294° West 3,000 -2,100 Descending FlightAware
08:17PM 37.4691 126.4505 322° Northwest  Level Estimated
08:18PM 37.4691 126.4505 335° Northwest  Level Estimated
08:19PM 37.4691 126.4505 335° Northwest  Level Estimated
08:20PM 37.4691 126.4505 335° Northwest  Level Estimated